createdAt,value
2023-06-11T00:03:22.452Z,15.93
2023-06-11T00:05:50.432Z,15.98
2023-06-11T00:08:17.291Z,12.93
2023-06-11T00:10:44.568Z,9.75
2023-06-11T00:13:11.547Z,8.90
2023-06-11T00:15:38.959Z,8.85
2023-06-11T00:18:06.427Z,8.68
2023-06-11T00:20:42.863Z,8.07
2023-06-11T00:23:10.549Z,8.13
2023-06-11T00:25:37.854Z,7.35
2023-06-11T00:28:05.046Z,7.70
2023-06-11T00:30:32.345Z,7.03
2023-06-11T00:33:01.122Z,6.47
2023-06-11T00:35:28.625Z,7.18
2023-06-11T00:37:58.631Z,6.25
2023-06-11T00:40:25.906Z,5.85
2023-06-11T00:42:53.179Z,5.72
2023-06-11T00:45:20.581Z,6.47
2023-06-11T00:47:47.645Z,6.20
2023-06-11T00:50:16.516Z,6.60
2023-06-11T00:52:43.882Z,5.70
2023-06-11T00:55:13.198Z,6.05
2023-06-11T00:57:43.889Z,6.55
2023-06-11T01:00:13.925Z,5.97
2023-06-11T01:02:46.365Z,5.78
2023-06-11T01:05:19.339Z,6.03
2023-06-11T01:07:52.461Z,5.93
2023-06-11T01:10:22.507Z,6.90
2023-06-11T01:12:49.652Z,6.40
2023-06-11T01:15:17.120Z,6.40
2023-06-11T01:17:51.606Z,7.22
2023-06-11T01:20:26.381Z,7.13
2023-06-11T01:23:16.124Z,6.45
2023-06-11T01:26:00.800Z,6.95
2023-06-11T01:28:33.108Z,6.22
2023-06-11T01:31:08.687Z,6.85
2023-06-11T01:33:37.216Z,6.70
2023-06-11T01:36:06.861Z,7.03
2023-06-11T01:38:43.033Z,6.72
2023-06-11T01:41:12.421Z,7.05
2023-06-11T01:43:41.184Z,6.97
2023-06-11T01:48:50.768Z,6.68
2023-06-11T01:51:18.212Z,6.10
2023-06-11T01:53:45.609Z,6.10
2023-06-11T01:56:12.898Z,6.18
2023-06-11T01:58:41.540Z,5.53
2023-06-11T02:01:09.380Z,5.95
2023-06-11T02:03:36.694Z,5.90
2023-06-11T02:06:04.362Z,5.85
2023-06-11T02:08:31.406Z,6.05
2023-06-11T02:10:58.746Z,5.10
2023-06-11T02:13:31.959Z,5.10
2023-06-11T02:16:01.210Z,4.75
2023-06-11T02:18:28.352Z,4.97
2023-06-11T02:20:55.697Z,5.43
2023-06-11T02:23:22.814Z,5.43
2023-06-11T02:25:50.725Z,5.10
2023-06-11T02:28:18.336Z,5.20
2023-06-11T02:30:45.552Z,5.57
2023-06-11T02:33:14.022Z,5.38
2023-06-11T02:38:08.691Z,4.82
2023-06-11T02:40:36.116Z,4.70
2023-06-11T02:43:03.834Z,4.55
2023-06-11T02:45:31.140Z,5.28
2023-06-11T02:47:58.323Z,5.20
2023-06-11T02:50:27.066Z,5.72
2023-06-11T02:52:54.199Z,4.47
2023-06-11T02:55:21.465Z,4.72
2023-06-11T02:57:48.520Z,4.53
2023-06-11T03:00:16.363Z,4.13
2023-06-11T03:02:43.692Z,4.53
2023-06-11T03:05:11.598Z,4.35
2023-06-11T03:07:40.345Z,4.28
2023-06-11T03:10:08.649Z,4.25
2023-06-11T03:12:36.361Z,4.03
2023-06-11T03:15:04.554Z,4.22
2023-06-11T03:17:40.138Z,4.18
2023-06-11T03:20:09.492Z,3.90
2023-06-11T03:22:36.742Z,4.03
2023-06-11T03:25:06.698Z,3.92
2023-06-11T03:27:33.821Z,4.57
2023-06-11T03:30:01.199Z,4.53
2023-06-11T03:32:28.603Z,4.13
2023-06-11T03:34:55.974Z,4.50
2023-06-11T03:37:22.933Z,5.50
2023-06-11T03:39:50.431Z,4.50
2023-06-11T03:42:18.763Z,3.92
2023-06-11T03:44:46.074Z,3.72
2023-06-11T03:47:13.056Z,3.88
2023-06-11T03:49:40.422Z,4.47
2023-06-11T03:52:08.493Z,3.53
2023-06-11T03:57:19.784Z,3.80
2023-06-11T03:59:47.166Z,4.25
2023-06-11T04:02:14.186Z,3.65
2023-06-11T04:04:41.706Z,3.60
2023-06-11T04:07:08.640Z,3.83
2023-06-11T04:09:36.048Z,3.85
2023-06-11T04:12:03.786Z,4.40
2023-06-11T04:14:32.560Z,3.30
2023-06-11T04:16:59.616Z,3.10
2023-06-11T04:19:26.934Z,3.50
2023-06-11T04:21:53.978Z,3.55
2023-06-11T04:24:21.402Z,3.47
2023-06-11T04:26:49.192Z,3.47
2023-06-11T04:29:16.983Z,3.17
2023-06-11T04:31:47.957Z,3.30
2023-06-11T04:34:18.296Z,3.35
2023-06-11T04:36:45.424Z,3.47
2023-06-11T04:39:12.839Z,2.70
2023-06-11T04:41:40.839Z,2.80
2023-06-11T04:44:08.186Z,3.17
2023-06-11T04:46:35.790Z,2.75
2023-06-11T04:49:08.117Z,3.35
2023-06-11T04:51:35.327Z,2.70
2023-06-11T04:54:08.629Z,3.20
2023-06-11T04:56:36.024Z,3.08
2023-06-11T04:59:05.073Z,2.30
2023-06-11T05:01:33.603Z,3.28
2023-06-11T05:04:01.306Z,2.88
2023-06-11T05:06:31.006Z,3.03
2023-06-11T05:08:58.753Z,3.30
2023-06-11T05:11:25.873Z,3.20
2023-06-11T05:13:53.352Z,2.95
2023-06-11T05:16:22.530Z,3.45
2023-06-11T05:18:49.957Z,3.10
2023-06-11T05:21:16.927Z,2.65
2023-06-11T05:23:45.818Z,2.90
2023-06-11T05:26:16.233Z,2.95
2023-06-11T05:28:43.602Z,3.60
2023-06-11T05:31:14.005Z,2.80
2023-06-11T05:33:41.712Z,3.55
2023-06-11T05:36:08.788Z,3.30
2023-06-11T05:38:36.186Z,3.13
2023-06-11T05:41:04.657Z,3.30
2023-06-11T05:43:31.930Z,3.13
2023-06-11T05:45:58.981Z,2.97
2023-06-11T05:48:28.185Z,3.28
2023-06-11T05:50:55.342Z,4.25
2023-06-11T05:53:23.142Z,3.40
2023-06-11T05:55:51.701Z,3.13
2023-06-11T05:58:24.244Z,3.50
2023-06-11T06:03:21.617Z,3.78
2023-06-11T06:05:48.872Z,4.28
2023-06-11T06:08:18.580Z,3.70
2023-06-11T06:10:45.568Z,4.63
2023-06-11T06:13:13.069Z,4.15
2023-06-11T06:15:44.375Z,3.63
2023-06-11T06:18:15.206Z,3.20
2023-06-11T06:20:47.908Z,3.63
2023-06-11T06:23:19.112Z,3.75
2023-06-11T06:25:48.991Z,3.45
2023-06-11T06:28:18.471Z,3.10
2023-06-11T06:30:47.530Z,3.17
2023-06-11T06:33:15.025Z,3.10
2023-06-11T06:35:44.224Z,8.48
2023-06-11T06:38:11.587Z,6.20
2023-06-11T06:40:38.803Z,3.25
2023-06-11T06:43:06.598Z,3.33
2023-06-11T06:45:34.758Z,2.73
2023-06-11T06:48:09.043Z,3.22
2023-06-11T06:50:36.332Z,3.30
2023-06-11T06:53:03.881Z,3.30
2023-06-11T06:55:31.211Z,3.33
2023-06-11T06:57:58.501Z,3.00
2023-06-11T07:00:25.435Z,3.05
2023-06-11T07:02:53.340Z,3.03
2023-06-11T07:05:22.010Z,2.90
2023-06-11T07:07:49.398Z,3.03
2023-06-11T07:10:22.568Z,3.40
2023-06-11T07:12:50.436Z,2.58
2023-06-11T07:15:17.671Z,2.70
2023-06-11T07:17:44.996Z,2.53
2023-06-11T07:20:13.421Z,2.97
2023-06-11T07:22:43.844Z,3.35
2023-06-11T07:25:11.149Z,3.03
2023-06-11T07:27:38.665Z,2.55
2023-06-11T07:30:06.925Z,2.63
2023-06-11T07:32:34.540Z,2.97
2023-06-11T07:35:01.666Z,2.47
2023-06-11T07:37:29.264Z,2.67
2023-06-11T07:39:57.788Z,2.60
2023-06-11T07:42:25.330Z,2.83
2023-06-11T07:44:52.427Z,2.22
2023-06-11T07:47:19.900Z,2.58
2023-06-11T07:49:47.178Z,2.70
2023-06-11T07:52:14.474Z,3.05
2023-06-11T07:54:42.409Z,3.20
2023-06-11T07:57:14.275Z,2.95
2023-06-11T07:59:43.399Z,2.70
2023-06-11T08:02:11.751Z,3.05
2023-06-11T08:04:39.564Z,2.80
2023-06-11T08:07:07.801Z,3.00
2023-06-11T08:09:39.048Z,2.80
2023-06-11T08:12:08.573Z,2.70
2023-06-11T08:14:37.322Z,2.63
2023-06-11T08:17:05.403Z,2.60
2023-06-11T08:19:32.732Z,2.78
2023-06-11T08:22:02.574Z,2.70
2023-06-11T08:24:31.724Z,2.47
2023-06-11T08:26:59.268Z,2.40
2023-06-11T08:29:26.454Z,2.78
2023-06-11T08:31:55.988Z,2.50
2023-06-11T08:34:23.414Z,2.90
2023-06-11T08:36:51.527Z,2.95
2023-06-11T08:39:18.815Z,3.05
2023-06-11T08:41:46.220Z,2.60
2023-06-11T08:44:13.418Z,2.45
2023-06-11T08:46:44.479Z,2.25
2023-06-11T08:49:21.315Z,2.28
2023-06-11T08:51:50.036Z,2.70
2023-06-11T08:59:12.539Z,2.47
2023-06-11T09:01:41.649Z,2.22
2023-06-11T09:04:09.341Z,2.20
2023-06-11T09:06:40.578Z,2.38
2023-06-11T09:09:08.769Z,2.03
2023-06-11T09:11:37.379Z,1.83
2023-06-11T09:16:41.078Z,1.90
2023-06-11T09:19:12.369Z,1.60
2023-06-11T09:21:49.178Z,2.30
2023-06-11T09:24:18.996Z,2.00
2023-06-11T09:26:51.919Z,1.88
2023-06-11T09:29:19.095Z,2.10
2023-06-11T09:31:46.778Z,2.00
2023-06-11T09:34:21.027Z,2.23
2023-06-11T09:36:50.241Z,2.20
2023-06-11T09:39:19.063Z,2.28
2023-06-11T09:41:50.635Z,2.03
2023-06-11T09:44:18.781Z,2.00
2023-06-11T09:46:47.856Z,2.10
2023-06-11T09:49:16.256Z,2.08
2023-06-11T09:51:44.747Z,2.00
2023-06-11T09:54:16.472Z,2.05
2023-06-11T09:56:45.010Z,1.83
2023-06-11T09:59:15.305Z,2.03
2023-06-11T10:01:48.527Z,1.95
2023-06-11T10:04:16.055Z,2.00
2023-06-11T10:06:47.333Z,2.45
2023-06-11T10:09:17.948Z,2.08
2023-06-11T10:11:46.803Z,1.70
2023-06-11T10:14:18.462Z,2.00
2023-06-11T10:16:50.385Z,1.83
2023-06-11T10:19:18.486Z,1.98
2023-06-11T10:21:55.610Z,2.10
2023-06-11T10:24:25.710Z,2.20
2023-06-11T10:27:08.508Z,1.98
2023-06-11T10:29:39.227Z,2.42
2023-06-11T10:32:16.773Z,2.25
2023-06-11T10:34:44.641Z,1.90
2023-06-11T10:39:51.882Z,2.00
2023-06-11T10:42:27.444Z,1.90
2023-06-11T10:44:58.074Z,2.00
2023-06-11T10:47:26.104Z,1.73
2023-06-11T10:49:54.927Z,2.00
2023-06-11T10:52:22.398Z,1.98
2023-06-11T10:54:52.972Z,2.20
2023-06-11T10:57:21.645Z,2.25
2023-06-11T10:59:51.192Z,2.38
2023-06-11T11:02:19.621Z,1.80
2023-06-11T11:04:52.373Z,2.13
2023-06-11T11:07:20.190Z,1.90
2023-06-11T11:09:47.562Z,1.92
2023-06-11T11:12:16.908Z,2.03
2023-06-11T11:14:44.013Z,2.20
2023-06-11T11:17:11.575Z,2.15
2023-06-11T11:19:41.674Z,2.10
2023-06-11T11:22:13.269Z,2.30
2023-06-11T11:24:40.977Z,2.08
2023-06-11T11:29:38.257Z,1.70
2023-06-11T11:32:06.995Z,1.92
2023-06-11T11:34:39.474Z,2.00
2023-06-11T11:37:07.679Z,2.28
2023-06-11T11:39:35.240Z,2.10
2023-06-11T11:42:03.301Z,2.45
2023-06-11T11:44:41.084Z,2.08
2023-06-11T11:47:09.513Z,2.10
2023-06-11T11:49:37.300Z,2.03
2023-06-11T11:54:33.756Z,2.13
2023-06-11T11:57:04.584Z,2.13
2023-06-11T11:59:38.896Z,4.05
2023-06-11T12:02:08.941Z,2.05
2023-06-11T12:04:37.433Z,2.60
2023-06-11T12:07:05.999Z,2.22
2023-06-11T12:09:33.402Z,2.00
2023-06-11T12:12:05.741Z,2.45
2023-06-11T12:14:34.060Z,2.20
2023-06-11T12:17:01.750Z,2.70
2023-06-11T12:19:32.303Z,2.75
2023-06-11T12:22:00.170Z,3.13
2023-06-11T12:24:27.836Z,2.30
2023-06-11T12:26:55.454Z,2.13
2023-06-11T12:29:22.436Z,2.20
2023-06-11T12:31:53.122Z,2.50
2023-06-11T12:34:20.700Z,2.63
2023-06-11T12:39:18.135Z,2.47
2023-06-11T12:41:47.910Z,2.50
2023-06-11T12:44:19.226Z,2.28
2023-06-11T12:46:46.835Z,2.30
2023-06-11T12:49:14.455Z,2.17
2023-06-11T12:51:46.930Z,2.85
2023-06-11T12:54:16.463Z,2.40
2023-06-11T12:56:44.173Z,2.45
2023-06-11T12:59:11.418Z,2.33
2023-06-11T13:01:38.874Z,2.03
2023-06-11T13:04:06.247Z,2.60
2023-06-11T13:06:33.735Z,2.67
2023-06-11T13:09:00.779Z,2.70
2023-06-11T13:11:30.025Z,2.28
2023-06-11T13:13:58.057Z,4.22
2023-06-11T13:16:25.839Z,3.05
2023-06-11T13:18:54.924Z,3.05
2023-06-11T13:21:22.441Z,2.58
2023-06-11T13:23:49.522Z,2.47
2023-06-11T13:26:17.164Z,2.50
2023-06-11T13:28:45.748Z,2.70
2023-06-11T13:31:13.239Z,2.88
2023-06-11T13:33:41.585Z,2.63
2023-06-11T13:36:09.493Z,2.50
2023-06-11T13:38:37.612Z,2.97
2023-06-11T13:41:04.967Z,2.63
2023-06-11T13:43:31.979Z,2.10
2023-06-11T13:46:00.574Z,2.50
2023-06-11T13:48:28.138Z,1.92
2023-06-11T13:50:56.860Z,2.33
2023-06-11T13:53:25.019Z,2.70
2023-06-11T13:55:53.492Z,2.47
2023-06-11T13:58:23.409Z,2.10
2023-06-11T14:00:54.038Z,2.80
2023-06-11T14:03:23.404Z,2.30
2023-06-11T14:08:19.220Z,2.30
2023-06-11T14:10:46.525Z,2.60
2023-06-11T14:13:14.607Z,2.10
2023-06-11T14:15:41.573Z,3.30
2023-06-11T14:18:09.109Z,2.80
2023-06-11T14:20:37.587Z,2.55
2023-06-11T14:23:06.719Z,2.42
2023-06-11T14:25:34.016Z,2.90
2023-06-11T14:28:02.259Z,3.20
2023-06-11T14:30:29.439Z,3.38
2023-06-11T14:32:57.253Z,2.95
2023-06-11T14:35:24.630Z,2.42
2023-06-11T14:38:21.747Z,2.33
2023-06-11T14:40:50.173Z,4.07
2023-06-11T14:43:17.688Z,4.40
2023-06-11T14:45:44.743Z,4.72
2023-06-11T14:48:12.166Z,3.65
2023-06-11T14:50:39.350Z,3.70
2023-06-11T14:53:08.710Z,4.32
2023-06-11T14:55:36.540Z,7.30
2023-06-11T14:58:05.550Z,4.60
2023-06-11T15:00:43.880Z,4.30
2023-06-11T15:05:41.590Z,3.38
2023-06-11T15:08:09.587Z,3.78
2023-06-11T15:10:40.145Z,4.15
2023-06-11T15:13:09.289Z,3.55
2023-06-11T15:15:36.198Z,3.53
2023-06-11T15:18:04.041Z,3.95
2023-06-11T15:20:31.239Z,3.50
2023-06-11T15:22:58.666Z,3.90
2023-06-11T15:25:25.817Z,3.50
2023-06-11T15:27:53.410Z,3.53
2023-06-11T15:30:22.011Z,3.50
2023-06-11T15:32:49.460Z,3.78
2023-06-11T15:35:16.859Z,3.55
2023-06-11T15:37:44.446Z,4.30
2023-06-11T15:40:12.778Z,4.78
2023-06-11T15:42:40.661Z,4.68
2023-06-11T15:45:09.902Z,5.50
2023-06-11T15:47:39.195Z,5.63
2023-06-11T15:50:08.480Z,5.93
2023-06-11T15:52:36.400Z,6.22
2023-06-11T15:55:04.254Z,4.88
2023-06-11T15:57:32.015Z,4.78
2023-06-11T15:59:59.113Z,5.50
2023-06-11T16:02:26.699Z,5.03
2023-06-11T16:04:55.278Z,4.95
2023-06-11T16:07:23.000Z,5.05
2023-06-11T16:09:50.522Z,4.50
2023-06-11T16:12:18.070Z,5.13
2023-06-11T16:14:46.170Z,3.80
2023-06-11T16:17:13.645Z,3.63
2023-06-11T16:19:41.439Z,3.45
2023-06-11T16:22:12.575Z,4.07
2023-06-11T16:24:40.159Z,3.78
2023-06-11T16:27:07.913Z,3.80
2023-06-11T16:29:34.959Z,4.00
2023-06-11T16:32:02.236Z,3.72
2023-06-11T16:34:29.997Z,3.75
2023-06-11T16:36:57.374Z,4.13
2023-06-11T16:39:28.644Z,4.10
2023-06-11T16:41:57.083Z,4.57
2023-06-11T16:44:24.407Z,3.83
2023-06-11T16:46:52.821Z,3.45
2023-06-11T16:49:20.041Z,3.13
2023-06-11T16:51:47.903Z,3.28
2023-06-11T16:54:18.346Z,2.90
2023-06-11T16:56:48.108Z,2.95
2023-06-11T17:01:42.742Z,2.72
2023-06-11T17:04:09.930Z,3.03
2023-06-11T17:06:37.347Z,2.83
2023-06-11T17:09:04.603Z,2.75
2023-06-11T17:11:31.990Z,2.47
2023-06-11T17:14:00.532Z,2.60
2023-06-11T17:16:28.617Z,2.80
2023-06-11T17:18:56.232Z,2.60
2023-06-11T17:21:23.537Z,3.08
2023-06-11T17:23:50.565Z,2.53
2023-06-11T17:26:18.378Z,2.67
2023-06-11T17:28:45.725Z,2.45
2023-06-11T17:31:14.524Z,2.95
2023-06-11T17:33:41.801Z,2.67
2023-06-11T17:36:09.505Z,3.00
2023-06-11T17:38:36.929Z,3.00
2023-06-11T17:41:04.392Z,3.38
2023-06-11T17:43:32.793Z,3.10
2023-06-11T17:48:28.793Z,3.60
2023-06-11T17:50:56.245Z,4.22
2023-06-11T17:53:25.105Z,3.40
2023-06-11T17:55:52.625Z,3.30
2023-06-11T17:58:19.735Z,3.20
2023-06-11T18:00:47.332Z,3.67
2023-06-11T18:03:14.549Z,2.95
2023-06-11T18:05:43.513Z,3.88
2023-06-11T18:08:10.524Z,3.00
2023-06-11T18:10:37.915Z,2.88
2023-06-11T18:13:05.298Z,3.42
2023-06-11T18:15:35.163Z,3.27
2023-06-11T18:18:04.901Z,3.17
2023-06-11T18:20:32.789Z,2.75
2023-06-11T18:23:01.624Z,3.05
2023-06-11T18:25:29.117Z,3.08
2023-06-11T18:27:56.316Z,3.17
2023-06-11T18:30:23.905Z,3.20
2023-06-11T18:32:51.648Z,3.67
2023-06-11T18:35:19.361Z,3.30
2023-06-11T18:37:49.728Z,3.17
2023-06-11T18:40:18.717Z,5.60
2023-06-11T18:42:46.056Z,3.67
2023-06-11T18:45:13.370Z,4.47
2023-06-11T18:47:40.741Z,4.97
2023-06-11T18:50:10.888Z,3.28
2023-06-11T18:52:41.785Z,5.50
2023-06-11T18:55:09.780Z,3.70
2023-06-11T18:57:38.134Z,3.97
2023-06-11T19:02:39.054Z,3.42
2023-06-11T19:05:07.522Z,3.05
2023-06-11T19:07:36.262Z,3.40
2023-06-11T19:10:03.798Z,3.25
2023-06-11T19:12:31.028Z,3.10
2023-06-11T19:14:59.862Z,3.10
2023-06-11T19:17:26.927Z,3.47
2023-06-11T19:19:54.251Z,2.83
2023-06-11T19:22:21.227Z,3.35
2023-06-11T19:24:48.887Z,3.10
2023-06-11T19:27:16.014Z,3.00
2023-06-11T19:29:43.365Z,3.38
2023-06-11T19:32:11.810Z,3.08
2023-06-11T19:34:39.186Z,3.47
2023-06-11T19:37:06.661Z,3.30
2023-06-11T19:39:34.236Z,3.55
2023-06-11T19:42:01.326Z,3.00
2023-06-11T19:44:28.770Z,3.35
2023-06-11T19:46:56.070Z,2.95
2023-06-11T19:49:24.757Z,3.30
2023-06-11T19:51:51.880Z,3.53
2023-06-11T19:54:19.282Z,3.60
2023-06-11T19:56:46.554Z,3.10
2023-06-11T19:59:15.031Z,3.63
2023-06-11T20:01:42.737Z,3.60
2023-06-11T20:04:10.318Z,3.05
2023-06-11T20:06:39.020Z,3.58
2023-06-11T20:09:06.699Z,3.83
2023-06-11T20:11:34.808Z,3.20
2023-06-11T20:14:02.005Z,3.08
2023-06-11T20:16:29.411Z,3.20
2023-06-11T20:18:56.478Z,3.30
2023-06-11T20:21:24.486Z,3.03
2023-06-11T20:23:58.311Z,3.30
2023-06-11T20:26:25.573Z,3.22
2023-06-11T20:28:52.619Z,3.40
2023-06-11T20:31:20.007Z,3.08
2023-06-11T20:33:47.227Z,3.78
2023-06-11T20:36:14.696Z,3.35
2023-06-11T20:38:41.768Z,3.60
2023-06-11T20:41:10.725Z,3.80
2023-06-11T20:43:42.298Z,4.10
2023-06-11T20:46:28.812Z,4.25
2023-06-11T20:48:57.021Z,3.72
2023-06-11T20:51:24.403Z,4.00
2023-06-11T20:53:51.564Z,3.80
2023-06-11T20:56:20.652Z,3.90
2023-06-11T20:58:47.620Z,3.00
2023-06-11T21:01:16.318Z,3.58
2023-06-11T21:03:43.710Z,3.22
2023-06-11T21:06:11.191Z,3.65
2023-06-11T21:08:38.347Z,3.20
2023-06-11T21:11:05.853Z,3.63
2023-06-11T21:13:34.697Z,3.90
2023-06-11T21:16:02.371Z,3.75
2023-06-11T21:18:29.601Z,4.30
2023-06-11T21:20:57.208Z,3.90
2023-06-11T21:23:24.380Z,3.88
2023-06-11T21:25:54.080Z,4.05
2023-06-11T21:28:21.089Z,3.60
2023-06-11T21:30:50.070Z,3.47
2023-06-11T21:35:45.739Z,4.40
2023-06-11T21:38:13.062Z,4.78
2023-06-11T21:40:40.479Z,4.15
2023-06-11T21:43:07.526Z,4.40
2023-06-11T21:45:34.900Z,4.00
2023-06-11T21:48:04.394Z,4.15
2023-06-11T21:50:32.230Z,4.30
2023-06-11T21:53:00.276Z,4.28
2023-06-11T21:55:27.773Z,4.38
2023-06-11T21:57:54.793Z,6.03
2023-06-11T22:00:22.416Z,4.00
2023-06-11T22:02:49.670Z,4.20
2023-06-11T22:05:20.477Z,4.50
2023-06-11T22:07:49.769Z,4.20
2023-06-11T22:10:17.312Z,4.35
2023-06-11T22:12:45.953Z,4.55
2023-06-11T22:15:14.260Z,3.97
2023-06-11T22:17:41.528Z,4.03
2023-06-11T22:20:11.149Z,3.90
2023-06-11T22:22:41.856Z,4.25
2023-06-11T22:25:11.410Z,4.68
2023-06-11T22:27:41.023Z,3.30
2023-06-11T22:30:10.177Z,3.85
2023-06-11T22:32:38.046Z,4.03
2023-06-11T22:35:05.960Z,3.55
2023-06-11T22:37:37.380Z,3.28
2023-06-11T22:40:07.537Z,3.13
2023-06-11T22:42:35.019Z,3.72
2023-06-11T22:45:02.427Z,3.17
2023-06-11T22:47:30.309Z,3.50
2023-06-11T22:49:57.739Z,3.22
2023-06-11T22:52:25.165Z,2.95
2023-06-11T22:54:52.717Z,3.25
2023-06-11T22:57:21.691Z,3.33
2023-06-11T23:02:15.871Z,3.17
2023-06-11T23:04:43.079Z,3.28
2023-06-11T23:07:12.208Z,3.22
2023-06-11T23:09:39.330Z,3.45
2023-06-11T23:12:08.322Z,3.28
2023-06-11T23:17:04.691Z,3.00
2023-06-11T23:19:33.411Z,3.10
2023-06-11T23:22:02.503Z,2.83
2023-06-11T23:27:02.442Z,3.67
2023-06-11T23:29:30.180Z,3.13
2023-06-11T23:31:59.232Z,3.03
2023-06-11T23:36:54.027Z,2.83
2023-06-11T23:39:21.382Z,2.70
2023-06-11T23:41:48.851Z,2.97
2023-06-11T23:44:15.884Z,3.10
2023-06-11T23:46:43.259Z,2.80
2023-06-11T23:49:11.830Z,2.80
2023-06-11T23:51:41.695Z,2.72
2023-06-11T23:54:09.112Z,2.78
2023-06-11T23:56:36.730Z,2.78
2023-06-11T23:59:03.784Z,2.83
